sensor_id;sensor_type;location;lat;lon;timestamp;P1;durP1;ratioP1;P2;durP2;ratioP2
49384;SDS011;36795;45.028;38.968;2023-03-01T00:02:23;24.30;;;9.07;;
49384;SDS011;36795;45.028;38.968;2023-03-01T00:05:09;22.62;;;9.25;;
49384;SDS011;36795;45.028;38.968;2023-03-01T00:07:55;24.35;;;9.43;;
49384;SDS011;36795;45.028;38.968;2023-03-01T00:10:42;23.55;;;9.70;;
49384;SDS011;36795;45.028;38.968;2023-03-01T00:13:28;23.80;;;9.63;;
49384;SDS011;36795;45.028;38.968;2023-03-01T00:16:15;28.25;;;9.60;;
49384;SDS011;36795;45.028;38.968;2023-03-01T00:19:02;24.02;;;9.20;;
49384;SDS011;36795;45.028;38.968;2023-03-01T00:21:48;24.23;;;9.52;;
49384;SDS011;36795;45.028;38.968;2023-03-01T00:24:34;22.85;;;9.18;;
49384;SDS011;36795;45.028;38.968;2023-03-01T00:27:21;23.80;;;10.07;;
49384;SDS011;36795;45.028;38.968;2023-03-01T00:30:07;24.65;;;9.90;;
49384;SDS011;36795;45.028;38.968;2023-03-01T00:32:54;23.77;;;10.07;;
49384;SDS011;36795;45.028;38.968;2023-03-01T00:35:41;26.10;;;10.00;;
49384;SDS011;36795;45.028;38.968;2023-03-01T00:38:28;25.20;;;9.38;;
49384;SDS011;36795;45.028;38.968;2023-03-01T00:41:15;25.65;;;8.85;;
49384;SDS011;36795;45.028;38.968;2023-03-01T00:44:02;26.60;;;10.30;;
49384;SDS011;36795;45.028;38.968;2023-03-01T00:46:47;22.62;;;9.05;;
49384;SDS011;36795;45.028;38.968;2023-03-01T00:49:34;25.27;;;9.80;;
49384;SDS011;36795;45.028;38.968;2023-03-01T00:52:20;24.65;;;9.02;;
49384;SDS011;36795;45.028;38.968;2023-03-01T00:55:07;22.67;;;8.85;;
49384;SDS011;36795;45.028;38.968;2023-03-01T00:57:53;26.05;;;9.57;;
49384;SDS011;36795;45.028;38.968;2023-03-01T01:00:39;23.35;;;9.45;;
49384;SDS011;36795;45.028;38.968;2023-03-01T01:03:26;23.05;;;9.27;;
49384;SDS011;36795;45.028;38.968;2023-03-01T01:06:13;21.98;;;9.13;;
49384;SDS011;36795;45.028;38.968;2023-03-01T01:08:59;22.52;;;9.10;;
49384;SDS011;36795;45.028;38.968;2023-03-01T01:11:54;23.42;;;9.93;;
49384;SDS011;36795;45.028;38.968;2023-03-01T01:14:40;23.35;;;9.00;;
49384;SDS011;36795;45.028;38.968;2023-03-01T01:17:27;27.45;;;9.43;;
49384;SDS011;36795;45.028;38.968;2023-03-01T01:20:13;22.90;;;8.77;;
49384;SDS011;36795;45.028;38.968;2023-03-01T01:23:00;23.95;;;9.35;;
49384;SDS011;36795;45.028;38.968;2023-03-01T01:25:46;22.50;;;8.50;;
49384;SDS011;36795;45.028;38.968;2023-03-01T01:28:32;22.25;;;8.95;;
49384;SDS011;36795;45.028;38.968;2023-03-01T01:31:18;24.05;;;9.35;;
49384;SDS011;36795;45.028;38.968;2023-03-01T01:34:06;24.45;;;10.02;;
49384;SDS011;36795;45.028;38.968;2023-03-01T01:36:53;23.23;;;9.52;;
49384;SDS011;36795;45.028;38.968;2023-03-01T01:39:40;23.17;;;9.43;;
49384;SDS011;36795;45.028;38.968;2023-03-01T01:42:26;24.40;;;10.05;;
49384;SDS011;36795;45.028;38.968;2023-03-01T01:45:24;24.23;;;10.00;;
49384;SDS011;36795;45.028;38.968;2023-03-01T01:48:15;24.02;;;10.07;;
49384;SDS011;36795;45.028;38.968;2023-03-01T01:51:03;24.17;;;9.90;;
49384;SDS011;36795;45.028;38.968;2023-03-01T01:53:51;24.05;;;10.32;;
49384;SDS011;36795;45.028;38.968;2023-03-01T01:56:40;24.92;;;10.23;;
49384;SDS011;36795;45.028;38.968;2023-03-01T01:59:27;25.05;;;10.07;;
49384;SDS011;36795;45.028;38.968;2023-03-01T02:02:14;25.95;;;10.50;;
49384;SDS011;36795;45.028;38.968;2023-03-01T02:05:03;25.67;;;10.38;;
49384;SDS011;36795;45.028;38.968;2023-03-01T02:07:55;26.42;;;11.12;;
49384;SDS011;36795;45.028;38.968;2023-03-01T02:10:43;25.85;;;11.68;;
49384;SDS011;36795;45.028;38.968;2023-03-01T02:13:31;27.40;;;11.70;;
49384;SDS011;36795;45.028;38.968;2023-03-01T02:16:18;27.25;;;11.50;;
49384;SDS011;36795;45.028;38.968;2023-03-01T02:22:05;26.02;;;11.77;;
49384;SDS011;36795;45.028;38.968;2023-03-01T02:30:37;26.58;;;11.65;;
49384;SDS011;36795;45.028;38.968;2023-03-01T02:33:44;27.83;;;11.98;;
49384;SDS011;36795;45.028;38.968;2023-03-01T02:36:37;26.75;;;11.60;;
49384;SDS011;36795;45.028;38.968;2023-03-01T02:39:25;26.87;;;12.27;;
49384;SDS011;36795;45.028;38.968;2023-03-01T02:42:16;26.37;;;11.73;;
49384;SDS011;36795;45.028;38.968;2023-03-01T02:45:04;26.67;;;11.50;;
49384;SDS011;36795;45.028;38.968;2023-03-01T02:47:53;26.87;;;11.68;;
49384;SDS011;36795;45.028;38.968;2023-03-01T02:51:14;29.63;;;12.73;;
49384;SDS011;36795;45.028;38.968;2023-03-01T02:56:51;29.25;;;12.43;;
49384;SDS011;36795;45.028;38.968;2023-03-01T02:59:38;26.87;;;12.23;;
49384;SDS011;36795;45.028;38.968;2023-03-01T03:02:29;30.65;;;13.77;;
49384;SDS011;36795;45.028;38.968;2023-03-01T03:05:29;29.70;;;12.55;;
49384;SDS011;36795;45.028;38.968;2023-03-01T03:08:16;30.80;;;12.88;;
49384;SDS011;36795;45.028;38.968;2023-03-01T03:11:10;30.58;;;13.65;;
49384;SDS011;36795;45.028;38.968;2023-03-01T03:13:57;34.05;;;13.23;;
49384;SDS011;36795;45.028;38.968;2023-03-01T03:16:47;30.20;;;13.15;;
49384;SDS011;36795;45.028;38.968;2023-03-01T03:19:34;28.80;;;12.13;;
49384;SDS011;36795;45.028;38.968;2023-03-01T03:22:20;34.83;;;13.07;;
49384;SDS011;36795;45.028;38.968;2023-03-01T03:25:07;34.78;;;14.55;;
49384;SDS011;36795;45.028;38.968;2023-03-01T03:27:56;31.08;;;13.80;;
49384;SDS011;36795;45.028;38.968;2023-03-01T03:30:43;28.62;;;13.13;;
49384;SDS011;36795;45.028;38.968;2023-03-01T03:33:32;28.95;;;12.75;;
49384;SDS011;36795;45.028;38.968;2023-03-01T03:36:20;29.08;;;13.77;;
49384;SDS011;36795;45.028;38.968;2023-03-01T03:39:05;28.30;;;12.90;;
49384;SDS011;36795;45.028;38.968;2023-03-01T03:41:52;29.25;;;13.07;;
49384;SDS011;36795;45.028;38.968;2023-03-01T03:44:38;33.75;;;13.88;;
49384;SDS011;36795;45.028;38.968;2023-03-01T03:47:25;29.80;;;12.45;;
49384;SDS011;36795;45.028;38.968;2023-03-01T03:50:12;28.42;;;12.73;;
49384;SDS011;36795;45.028;38.968;2023-03-01T03:53:03;45.90;;;14.77;;
49384;SDS011;36795;45.028;38.968;2023-03-01T03:55:49;31.92;;;14.32;;
49384;SDS011;36795;45.028;38.968;2023-03-01T03:58:37;31.23;;;13.52;;
49384;SDS011;36795;45.028;38.968;2023-03-01T04:01:23;30.37;;;12.82;;
49384;SDS011;36795;45.028;38.968;2023-03-01T04:04:09;38.85;;;14.77;;
49384;SDS011;36795;45.028;38.968;2023-03-01T04:06:55;31.65;;;12.52;;
49384;SDS011;36795;45.028;38.968;2023-03-01T04:09:47;28.98;;;12.50;;
49384;SDS011;36795;45.028;38.968;2023-03-01T04:12:33;35.30;;;14.23;;
49384;SDS011;36795;45.028;38.968;2023-03-01T04:15:20;33.80;;;13.88;;
49384;SDS011;36795;45.028;38.968;2023-03-01T04:18:08;30.95;;;12.50;;
49384;SDS011;36795;45.028;38.968;2023-03-01T04:20:59;31.48;;;13.05;;
49384;SDS011;36795;45.028;38.968;2023-03-01T04:23:48;33.58;;;14.05;;
49384;SDS011;36795;45.028;38.968;2023-03-01T04:26:37;30.17;;;13.30;;
49384;SDS011;36795;45.028;38.968;2023-03-01T04:29:23;31.98;;;13.15;;
49384;SDS011;36795;45.028;38.968;2023-03-01T04:32:09;32.67;;;13.68;;
49384;SDS011;36795;45.028;38.968;2023-03-01T04:34:55;40.60;;;14.48;;
49384;SDS011;36795;45.028;38.968;2023-03-01T04:37:42;33.33;;;13.93;;
49384;SDS011;36795;45.028;38.968;2023-03-01T04:40:31;32.95;;;13.82;;
49384;SDS011;36795;45.028;38.968;2023-03-01T04:43:17;31.60;;;12.85;;
49384;SDS011;36795;45.028;38.968;2023-03-01T04:46:06;37.08;;;15.40;;
49384;SDS011;36795;45.028;38.968;2023-03-01T04:48:54;34.17;;;13.52;;
49384;SDS011;36795;45.028;38.968;2023-03-01T04:51:40;34.25;;;14.27;;
49384;SDS011;36795;45.028;38.968;2023-03-01T04:54:26;30.67;;;12.37;;
49384;SDS011;36795;45.028;38.968;2023-03-01T04:57:12;32.58;;;14.20;;
49384;SDS011;36795;45.028;38.968;2023-03-01T04:59:58;28.85;;;12.43;;
49384;SDS011;36795;45.028;38.968;2023-03-01T05:02:47;28.83;;;11.75;;
49384;SDS011;36795;45.028;38.968;2023-03-01T05:05:35;35.53;;;12.93;;
49384;SDS011;36795;45.028;38.968;2023-03-01T05:08:21;35.60;;;12.05;;
49384;SDS011;36795;45.028;38.968;2023-03-01T05:11:07;35.60;;;12.40;;
49384;SDS011;36795;45.028;38.968;2023-03-01T05:13:53;30.88;;;12.82;;
49384;SDS011;36795;45.028;38.968;2023-03-01T05:16:40;27.08;;;11.32;;
49384;SDS011;36795;45.028;38.968;2023-03-01T05:19:26;28.65;;;12.70;;
49384;SDS011;36795;45.028;38.968;2023-03-01T05:22:12;45.63;;;16.23;;
49384;SDS011;36795;45.028;38.968;2023-03-01T05:24:58;32.45;;;13.07;;
49384;SDS011;36795;45.028;38.968;2023-03-01T05:27:45;29.98;;;13.18;;
49384;SDS011;36795;45.028;38.968;2023-03-01T05:30:32;38.47;;;13.38;;
49384;SDS011;36795;45.028;38.968;2023-03-01T05:33:20;30.55;;;12.75;;
49384;SDS011;36795;45.028;38.968;2023-03-01T05:36:07;30.27;;;12.68;;
49384;SDS011;36795;45.028;38.968;2023-03-01T05:38:54;26.05;;;10.68;;
49384;SDS011;36795;45.028;38.968;2023-03-01T05:41:40;28.95;;;12.63;;
49384;SDS011;36795;45.028;38.968;2023-03-01T05:44:28;28.55;;;12.30;;
49384;SDS011;36795;45.028;38.968;2023-03-01T05:47:14;30.73;;;13.48;;
49384;SDS011;36795;45.028;38.968;2023-03-01T05:50:02;30.58;;;13.18;;
49384;SDS011;36795;45.028;38.968;2023-03-01T05:52:59;28.55;;;13.05;;
49384;SDS011;36795;45.028;38.968;2023-03-01T05:55:46;34.28;;;14.48;;
49384;SDS011;36795;45.028;38.968;2023-03-01T05:58:34;41.17;;;14.27;;
49384;SDS011;36795;45.028;38.968;2023-03-01T06:01:21;32.05;;;14.30;;
49384;SDS011;36795;45.028;38.968;2023-03-01T06:04:08;36.20;;;15.02;;
49384;SDS011;36795;45.028;38.968;2023-03-01T06:06:54;33.40;;;13.25;;
49384;SDS011;36795;45.028;38.968;2023-03-01T06:09:40;32.50;;;13.70;;
49384;SDS011;36795;45.028;38.968;2023-03-01T06:12:29;36.22;;;14.38;;
49384;SDS011;36795;45.028;38.968;2023-03-01T06:15:16;36.95;;;15.05;;
49384;SDS011;36795;45.028;38.968;2023-03-01T06:18:02;38.10;;;15.15;;
49384;SDS011;36795;45.028;38.968;2023-03-01T06:20:55;32.60;;;14.68;;
49384;SDS011;36795;45.028;38.968;2023-03-01T06:23:41;39.03;;;16.15;;
49384;SDS011;36795;45.028;38.968;2023-03-01T06:26:28;34.72;;;15.02;;
49384;SDS011;36795;45.028;38.968;2023-03-01T06:29:14;37.63;;;15.38;;
49384;SDS011;36795;45.028;38.968;2023-03-01T06:32:00;36.80;;;14.35;;
49384;SDS011;36795;45.028;38.968;2023-03-01T06:34:46;48.25;;;15.70;;
49384;SDS011;36795;45.028;38.968;2023-03-01T06:37:33;35.97;;;14.57;;
49384;SDS011;36795;45.028;38.968;2023-03-01T06:40:19;38.03;;;15.00;;
49384;SDS011;36795;45.028;38.968;2023-03-01T06:43:06;32.53;;;14.95;;
49384;SDS011;36795;45.028;38.968;2023-03-01T06:45:53;35.58;;;16.58;;
49384;SDS011;36795;45.028;38.968;2023-03-01T06:48:39;40.08;;;14.95;;
49384;SDS011;36795;45.028;38.968;2023-03-01T06:51:25;33.00;;;14.43;;
49384;SDS011;36795;45.028;38.968;2023-03-01T06:54:11;32.33;;;14.05;;
49384;SDS011;36795;45.028;38.968;2023-03-01T06:56:57;35.17;;;15.88;;
49384;SDS011;36795;45.028;38.968;2023-03-01T06:59:44;31.67;;;14.90;;
49384;SDS011;36795;45.028;38.968;2023-03-01T07:02:30;34.22;;;15.52;;
49384;SDS011;36795;45.028;38.968;2023-03-01T07:05:16;35.28;;;16.83;;
49384;SDS011;36795;45.028;38.968;2023-03-01T07:08:02;36.75;;;15.25;;
49384;SDS011;36795;45.028;38.968;2023-03-01T07:10:54;33.03;;;14.25;;
49384;SDS011;36795;45.028;38.968;2023-03-01T07:13:49;41.70;;;15.75;;
49384;SDS011;36795;45.028;38.968;2023-03-01T07:16:36;29.80;;;13.93;;
49384;SDS011;36795;45.028;38.968;2023-03-01T07:19:22;33.58;;;14.87;;
49384;SDS011;36795;45.028;38.968;2023-03-01T07:22:08;37.47;;;15.30;;
49384;SDS011;36795;45.028;38.968;2023-03-01T07:24:54;33.38;;;14.73;;
49384;SDS011;36795;45.028;38.968;2023-03-01T07:27:41;32.15;;;13.85;;
49384;SDS011;36795;45.028;38.968;2023-03-01T07:30:27;28.48;;;13.00;;
49384;SDS011;36795;45.028;38.968;2023-03-01T07:33:13;33.10;;;12.82;;
49384;SDS011;36795;45.028;38.968;2023-03-01T07:36:00;33.55;;;13.73;;
49384;SDS011;36795;45.028;38.968;2023-03-01T07:38:47;36.17;;;14.30;;
49384;SDS011;36795;45.028;38.968;2023-03-01T07:41:33;27.08;;;12.82;;
49384;SDS011;36795;45.028;38.968;2023-03-01T07:44:19;29.17;;;12.93;;
49384;SDS011;36795;45.028;38.968;2023-03-01T07:47:08;29.90;;;12.90;;
49384;SDS011;36795;45.028;38.968;2023-03-01T07:49:55;31.27;;;11.80;;
49384;SDS011;36795;45.028;38.968;2023-03-01T07:52:41;32.40;;;12.73;;
49384;SDS011;36795;45.028;38.968;2023-03-01T07:55:30;30.35;;;12.73;;
49384;SDS011;36795;45.028;38.968;2023-03-01T07:58:16;29.25;;;11.23;;
49384;SDS011;36795;45.028;38.968;2023-03-01T08:01:03;26.55;;;11.88;;
49384;SDS011;36795;45.028;38.968;2023-03-01T08:03:50;28.23;;;13.65;;
49384;SDS011;36795;45.028;38.968;2023-03-01T08:06:36;30.02;;;12.32;;
49384;SDS011;36795;45.028;38.968;2023-03-01T08:09:22;29.33;;;12.32;;
49384;SDS011;36795;45.028;38.968;2023-03-01T08:12:08;32.10;;;13.65;;
49384;SDS011;36795;45.028;38.968;2023-03-01T08:14:55;41.20;;;13.95;;
49384;SDS011;36795;45.028;38.968;2023-03-01T08:17:44;27.90;;;11.27;;
49384;SDS011;36795;45.028;38.968;2023-03-01T08:20:31;30.37;;;12.25;;
49384;SDS011;36795;45.028;38.968;2023-03-01T08:23:17;29.00;;;13.57;;
49384;SDS011;36795;45.028;38.968;2023-03-01T08:26:04;34.22;;;13.15;;
49384;SDS011;36795;45.028;38.968;2023-03-01T08:28:50;28.67;;;13.00;;
49384;SDS011;36795;45.028;38.968;2023-03-01T08:31:38;32.25;;;13.62;;
49384;SDS011;36795;45.028;38.968;2023-03-01T08:34:24;31.25;;;14.85;;
49384;SDS011;36795;45.028;38.968;2023-03-01T08:37:11;34.03;;;13.45;;
49384;SDS011;36795;45.028;38.968;2023-03-01T08:39:57;31.27;;;14.55;;
49384;SDS011;36795;45.028;38.968;2023-03-01T08:42:43;29.85;;;13.00;;
49384;SDS011;36795;45.028;38.968;2023-03-01T08:45:32;32.55;;;13.30;;
49384;SDS011;36795;45.028;38.968;2023-03-01T08:48:19;31.75;;;13.20;;
49384;SDS011;36795;45.028;38.968;2023-03-01T08:51:09;34.72;;;13.57;;
49384;SDS011;36795;45.028;38.968;2023-03-01T08:53:56;29.50;;;12.37;;
49384;SDS011;36795;45.028;38.968;2023-03-01T08:56:42;29.42;;;11.73;;
49384;SDS011;36795;45.028;38.968;2023-03-01T08:59:29;32.22;;;12.27;;
49384;SDS011;36795;45.028;38.968;2023-03-01T09:02:16;38.22;;;13.65;;
49384;SDS011;36795;45.028;38.968;2023-03-01T09:05:03;29.23;;;12.13;;
49384;SDS011;36795;45.028;38.968;2023-03-01T09:07:49;28.05;;;12.30;;
49384;SDS011;36795;45.028;38.968;2023-03-01T09:10:37;27.08;;;10.90;;
49384;SDS011;36795;45.028;38.968;2023-03-01T09:13:23;27.73;;;11.80;;
49384;SDS011;36795;45.028;38.968;2023-03-01T09:16:10;27.05;;;12.25;;
49384;SDS011;36795;45.028;38.968;2023-03-01T09:18:56;27.40;;;11.00;;
49384;SDS011;36795;45.028;38.968;2023-03-01T09:21:43;26.02;;;10.70;;
49384;SDS011;36795;45.028;38.968;2023-03-01T09:24:36;28.55;;;11.40;;
49384;SDS011;36795;45.028;38.968;2023-03-01T09:27:23;31.25;;;11.95;;
49384;SDS011;36795;45.028;38.968;2023-03-01T09:30:10;32.75;;;12.35;;
49384;SDS011;36795;45.028;38.968;2023-03-01T09:32:56;36.75;;;11.98;;
49384;SDS011;36795;45.028;38.968;2023-03-01T09:35:42;33.05;;;12.77;;
49384;SDS011;36795;45.028;38.968;2023-03-01T09:38:31;27.80;;;11.80;;
49384;SDS011;36795;45.028;38.968;2023-03-01T09:41:31;32.28;;;12.88;;
49384;SDS011;36795;45.028;38.968;2023-03-01T09:50:16;25.77;;;10.75;;
49384;SDS011;36795;45.028;38.968;2023-03-01T09:53:06;26.65;;;10.73;;
49384;SDS011;36795;45.028;38.968;2023-03-01T10:02:13;29.95;;;11.25;;
49384;SDS011;36795;45.028;38.968;2023-03-01T10:05:05;31.40;;;13.25;;
49384;SDS011;36795;45.028;38.968;2023-03-01T10:10:46;27.55;;;12.30;;
49384;SDS011;36795;45.028;38.968;2023-03-01T10:16:46;30.35;;;12.00;;
49384;SDS011;36795;45.028;38.968;2023-03-01T10:19:44;26.77;;;12.37;;
49384;SDS011;36795;45.028;38.968;2023-03-01T10:22:31;34.85;;;12.90;;
49384;SDS011;36795;45.028;38.968;2023-03-01T10:25:24;28.30;;;11.70;;
49384;SDS011;36795;45.028;38.968;2023-03-01T10:28:20;28.23;;;11.85;;
49384;SDS011;36795;45.028;38.968;2023-03-01T10:31:13;35.03;;;12.80;;
49384;SDS011;36795;45.028;38.968;2023-03-01T10:34:01;34.05;;;14.70;;
49384;SDS011;36795;45.028;38.968;2023-03-01T10:36:48;31.12;;;12.60;;
49384;SDS011;36795;45.028;38.968;2023-03-01T10:39:35;28.67;;;14.00;;
49384;SDS011;36795;45.028;38.968;2023-03-01T10:42:25;31.20;;;13.70;;
49384;SDS011;36795;45.028;38.968;2023-03-01T10:45:17;32.58;;;15.23;;
49384;SDS011;36795;45.028;38.968;2023-03-01T10:48:16;35.72;;;16.80;;
49384;SDS011;36795;45.028;38.968;2023-03-01T10:51:06;37.80;;;14.07;;
49384;SDS011;36795;45.028;38.968;2023-03-01T10:53:52;28.52;;;12.82;;
49384;SDS011;36795;45.028;38.968;2023-03-01T10:56:49;28.67;;;11.55;;
49384;SDS011;36795;45.028;38.968;2023-03-01T10:59:36;28.48;;;10.10;;
49384;SDS011;36795;45.028;38.968;2023-03-01T11:02:29;27.50;;;9.88;;
49384;SDS011;36795;45.028;38.968;2023-03-01T11:05:19;33.45;;;10.85;;
49384;SDS011;36795;45.028;38.968;2023-03-01T11:08:09;29.23;;;10.00;;
49384;SDS011;36795;45.028;38.968;2023-03-01T11:11:06;26.65;;;10.27;;
49384;SDS011;36795;45.028;38.968;2023-03-01T11:14:12;27.83;;;11.32;;
49384;SDS011;36795;45.028;38.968;2023-03-01T11:17:43;34.85;;;12.07;;
49384;SDS011;36795;45.028;38.968;2023-03-01T11:20:20;30.90;;;11.32;;
49384;SDS011;36795;45.028;38.968;2023-03-01T11:23:12;31.23;;;11.48;;
49384;SDS011;36795;45.028;38.968;2023-03-01T11:26:02;27.73;;;11.82;;
49384;SDS011;36795;45.028;38.968;2023-03-01T11:28:51;30.67;;;11.82;;
49384;SDS011;36795;45.028;38.968;2023-03-01T11:31:43;34.53;;;12.07;;
49384;SDS011;36795;45.028;38.968;2023-03-01T11:34:38;33.05;;;13.50;;
49384;SDS011;36795;45.028;38.968;2023-03-01T11:37:36;29.60;;;11.00;;
49384;SDS011;36795;45.028;38.968;2023-03-01T11:40:25;27.33;;;11.15;;
49384;SDS011;36795;45.028;38.968;2023-03-01T11:43:15;35.25;;;10.80;;
49384;SDS011;36795;45.028;38.968;2023-03-01T11:49:13;27.50;;;9.63;;
49384;SDS011;36795;45.028;38.968;2023-03-01T11:52:03;25.25;;;9.93;;
49384;SDS011;36795;45.028;38.968;2023-03-01T12:04:10;27.92;;;10.68;;
49384;SDS011;36795;45.028;38.968;2023-03-01T12:10:18;25.35;;;10.90;;
49384;SDS011;36795;45.028;38.968;2023-03-01T12:16:01;31.70;;;11.60;;
49384;SDS011;36795;45.028;38.968;2023-03-01T12:19:00;29.98;;;10.95;;
49384;SDS011;36795;45.028;38.968;2023-03-01T12:27:42;28.27;;;10.30;;
49384;SDS011;36795;45.028;38.968;2023-03-01T12:37:08;29.20;;;11.15;;
49384;SDS011;36795;45.028;38.968;2023-03-01T12:43:07;26.98;;;9.73;;
49384;SDS011;36795;45.028;38.968;2023-03-01T12:51:43;32.15;;;10.40;;
49384;SDS011;36795;45.028;38.968;2023-03-01T12:54:33;36.10;;;14.52;;
49384;SDS011;36795;45.028;38.968;2023-03-01T13:00:27;30.95;;;12.43;;
49384;SDS011;36795;45.028;38.968;2023-03-01T13:06:34;46.35;;;14.95;;
49384;SDS011;36795;45.028;38.968;2023-03-01T13:20:57;31.10;;;13.07;;
49384;SDS011;36795;45.028;38.968;2023-03-01T13:23:47;29.20;;;12.82;;
49384;SDS011;36795;45.028;38.968;2023-03-01T13:26:39;35.10;;;13.62;;
49384;SDS011;36795;45.028;38.968;2023-03-01T13:29:46;35.83;;;13.35;;
49384;SDS011;36795;45.028;38.968;2023-03-01T13:32:33;31.55;;;12.30;;
49384;SDS011;36795;45.028;38.968;2023-03-01T13:38:58;35.45;;;13.60;;
49384;SDS011;36795;45.028;38.968;2023-03-01T13:41:47;30.20;;;13.40;;
49384;SDS011;36795;45.028;38.968;2023-03-01T13:44:37;39.92;;;14.20;;
49384;SDS011;36795;45.028;38.968;2023-03-01T13:47:23;38.22;;;14.68;;
49384;SDS011;36795;45.028;38.968;2023-03-01T13:50:18;30.37;;;13.07;;
49384;SDS011;36795;45.028;38.968;2023-03-01T13:53:09;33.00;;;13.48;;
49384;SDS011;36795;45.028;38.968;2023-03-01T13:56:07;30.95;;;13.85;;
49384;SDS011;36795;45.028;38.968;2023-03-01T13:58:54;38.63;;;14.18;;
49384;SDS011;36795;45.028;38.968;2023-03-01T14:01:42;42.58;;;14.25;;
49384;SDS011;36795;45.028;38.968;2023-03-01T14:04:30;35.45;;;13.18;;
49384;SDS011;36795;45.028;38.968;2023-03-01T14:07:18;46.10;;;14.57;;
49384;SDS011;36795;45.028;38.968;2023-03-01T14:10:05;32.45;;;13.55;;
49384;SDS011;36795;45.028;38.968;2023-03-01T14:12:53;43.90;;;15.38;;
49384;SDS011;36795;45.028;38.968;2023-03-01T14:24:54;36.17;;;12.13;;
49384;SDS011;36795;45.028;38.968;2023-03-01T14:30:37;36.05;;;11.95;;
49384;SDS011;36795;45.028;38.968;2023-03-01T14:33:27;33.60;;;13.55;;
49384;SDS011;36795;45.028;38.968;2023-03-01T14:36:15;32.88;;;13.35;;
49384;SDS011;36795;45.028;38.968;2023-03-01T14:39:18;38.00;;;14.70;;
49384;SDS011;36795;45.028;38.968;2023-03-01T14:42:09;157.35;;;25.48;;
49384;SDS011;36795;45.028;38.968;2023-03-01T14:44:57;83.03;;;20.88;;
49384;SDS011;36795;45.028;38.968;2023-03-01T14:47:46;54.70;;;20.50;;
49384;SDS011;36795;45.028;38.968;2023-03-01T14:50:41;47.07;;;19.33;;
49384;SDS011;36795;45.028;38.968;2023-03-01T14:53:34;63.78;;;19.40;;
49384;SDS011;36795;45.028;38.968;2023-03-01T14:56:25;49.95;;;18.20;;
49384;SDS011;36795;45.028;38.968;2023-03-01T14:59:11;45.40;;;18.55;;
49384;SDS011;36795;45.028;38.968;2023-03-01T15:01:59;44.25;;;18.90;;
49384;SDS011;36795;45.028;38.968;2023-03-01T15:04:46;47.85;;;20.77;;
49384;SDS011;36795;45.028;38.968;2023-03-01T15:07:36;59.75;;;19.05;;
49384;SDS011;36795;45.028;38.968;2023-03-01T15:10:26;46.25;;;17.67;;
49384;SDS011;36795;45.028;38.968;2023-03-01T15:13:35;52.00;;;18.85;;
49384;SDS011;36795;45.028;38.968;2023-03-01T15:16:29;40.35;;;16.95;;
49384;SDS011;36795;45.028;38.968;2023-03-01T15:19:26;47.03;;;21.85;;
49384;SDS011;36795;45.028;38.968;2023-03-01T15:22:15;47.65;;;20.77;;
49384;SDS011;36795;45.028;38.968;2023-03-01T15:25:02;43.15;;;20.37;;
49384;SDS011;36795;45.028;38.968;2023-03-01T15:27:49;41.67;;;19.42;;
49384;SDS011;36795;45.028;38.968;2023-03-01T15:30:36;55.72;;;28.73;;
49384;SDS011;36795;45.028;38.968;2023-03-01T15:42:00;47.10;;;17.20;;
49384;SDS011;36795;45.028;38.968;2023-03-01T15:44:46;40.83;;;17.33;;
49384;SDS011;36795;45.028;38.968;2023-03-01T15:47:33;43.65;;;17.60;;
49384;SDS011;36795;45.028;38.968;2023-03-01T15:50:29;38.42;;;17.52;;
49384;SDS011;36795;45.028;38.968;2023-03-01T15:53:18;40.55;;;17.15;;
49384;SDS011;36795;45.028;38.968;2023-03-01T15:56:04;39.35;;;17.30;;
49384;SDS011;36795;45.028;38.968;2023-03-01T15:58:56;44.88;;;17.45;;
49384;SDS011;36795;45.028;38.968;2023-03-01T16:01:46;77.03;;;20.05;;
49384;SDS011;36795;45.028;38.968;2023-03-01T16:04:37;40.85;;;16.48;;
49384;SDS011;36795;45.028;38.968;2023-03-01T16:07:26;34.78;;;15.95;;
49384;SDS011;36795;45.028;38.968;2023-03-01T16:10:13;40.67;;;17.10;;
49384;SDS011;36795;45.028;38.968;2023-03-01T16:12:59;34.25;;;15.68;;
49384;SDS011;36795;45.028;38.968;2023-03-01T16:15:45;31.80;;;14.75;;
49384;SDS011;36795;45.028;38.968;2023-03-01T16:18:31;36.58;;;14.93;;
49384;SDS011;36795;45.028;38.968;2023-03-01T16:21:20;35.88;;;16.00;;
49384;SDS011;36795;45.028;38.968;2023-03-01T16:24:06;37.40;;;16.33;;
49384;SDS011;36795;45.028;38.968;2023-03-01T16:26:53;37.42;;;15.82;;
49384;SDS011;36795;45.028;38.968;2023-03-01T16:29:39;33.15;;;12.90;;
49384;SDS011;36795;45.028;38.968;2023-03-01T16:32:25;34.10;;;14.43;;
49384;SDS011;36795;45.028;38.968;2023-03-01T16:35:12;35.95;;;14.38;;
49384;SDS011;36795;45.028;38.968;2023-03-01T16:37:59;34.55;;;14.00;;
49384;SDS011;36795;45.028;38.968;2023-03-01T16:40:49;37.40;;;15.65;;
49384;SDS011;36795;45.028;38.968;2023-03-01T16:43:36;41.22;;;15.95;;
49384;SDS011;36795;45.028;38.968;2023-03-01T16:46:24;36.90;;;15.52;;
49384;SDS011;36795;45.028;38.968;2023-03-01T16:49:11;40.65;;;17.25;;
49384;SDS011;36795;45.028;38.968;2023-03-01T16:51:58;36.03;;;17.17;;
49384;SDS011;36795;45.028;38.968;2023-03-01T16:54:44;44.97;;;16.12;;
49384;SDS011;36795;45.028;38.968;2023-03-01T16:57:30;39.13;;;15.48;;
49384;SDS011;36795;45.028;38.968;2023-03-01T17:00:17;37.38;;;18.08;;
49384;SDS011;36795;45.028;38.968;2023-03-01T17:03:03;33.55;;;15.32;;
49384;SDS011;36795;45.028;38.968;2023-03-01T17:05:50;42.60;;;16.27;;
49384;SDS011;36795;45.028;38.968;2023-03-01T17:08:36;44.25;;;17.17;;
49384;SDS011;36795;45.028;38.968;2023-03-01T17:11:25;35.55;;;15.75;;
49384;SDS011;36795;45.028;38.968;2023-03-01T17:14:10;35.33;;;14.25;;
49384;SDS011;36795;45.028;38.968;2023-03-01T17:17:04;36.78;;;16.20;;
49384;SDS011;36795;45.028;38.968;2023-03-01T17:19:50;35.92;;;14.63;;
49384;SDS011;36795;45.028;38.968;2023-03-01T17:22:37;34.47;;;15.18;;
49384;SDS011;36795;45.028;38.968;2023-03-01T17:25:23;67.50;;;19.98;;
49384;SDS011;36795;45.028;38.968;2023-03-01T17:28:10;39.08;;;16.62;;
49384;SDS011;36795;45.028;38.968;2023-03-01T17:30:58;43.25;;;17.30;;
49384;SDS011;36795;45.028;38.968;2023-03-01T17:33:46;49.60;;;16.45;;
49384;SDS011;36795;45.028;38.968;2023-03-01T17:36:33;38.63;;;15.43;;
49384;SDS011;36795;45.028;38.968;2023-03-01T17:39:28;51.08;;;18.52;;
49384;SDS011;36795;45.028;38.968;2023-03-01T17:42:19;36.75;;;16.67;;
49384;SDS011;36795;45.028;38.968;2023-03-01T17:45:06;40.25;;;18.58;;
49384;SDS011;36795;45.028;38.968;2023-03-01T17:47:53;38.80;;;16.42;;
49384;SDS011;36795;45.028;38.968;2023-03-01T17:50:39;37.85;;;16.95;;
49384;SDS011;36795;45.028;38.968;2023-03-01T17:53:25;34.03;;;16.00;;
49384;SDS011;36795;45.028;38.968;2023-03-01T17:56:11;37.72;;;15.80;;
49384;SDS011;36795;45.028;38.968;2023-03-01T17:58:57;33.28;;;15.32;;
49384;SDS011;36795;45.028;38.968;2023-03-01T18:01:44;35.63;;;17.20;;
49384;SDS011;36795;45.028;38.968;2023-03-01T18:04:31;34.40;;;15.07;;
49384;SDS011;36795;45.028;38.968;2023-03-01T18:07:17;43.25;;;16.45;;